Time;durP1;ratioP1;P1;durP2;ratioP2;P2;SDS_P1;SDS_P2;PMS_P1;PMS_P2;Temp;Humidity;BMP_temperature;BMP_pressure;BME280_temperature;BME280_humidity;BME280_pressure;Samples;Min_cycle;Max_cycle;Signal;HPM_P1;HPM_P2
2023/06/15 00:01:48;;;;;;;;;17.50;17.50;;;;;;;;4958561;28;45340;-66
2023/06/15 00:04:13;;;;;;;;;23.50;19.25;;;;;;;;4958249;28;45429;-66
2023/06/15 00:06:38;;;;;;;;;16.50;16.25;;;;;;;;4958370;28;47181;-66
2023/06/15 00:09:03;;;;;;;;;19.75;18.25;;;;;;;;4958288;28;45322;-65
2023/06/15 00:11:28;;;;;;;;;21.75;17.50;;;;;;;;4958409;28;45314;-65
2023/06/15 00:13:54;;;;;;;;;18.00;18.00;;;;;;;;4958198;28;45393;-66
2023/06/15 00:16:19;;;;;;;;;20.75;20.25;;;;;;;;4958105;28;45622;-65
2023/06/15 00:18:48;;;;;;;;;19.25;19.00;;;;;;;;4958062;28;45377;-65
2023/06/15 00:21:15;;;;;;;;;19.25;16.00;;;;;;;;4958322;28;45299;-65
2023/06/15 00:23:40;;;;;;;;;17.50;17.25;;;;;;;;4957870;28;45200;-65
2023/06/15 00:26:05;;;;;;;;;24.25;19.25;;;;;;;;4957780;28;46130;-65
2023/06/15 00:28:31;;;;;;;;;19.75;18.75;;;;;;;;4957841;28;45286;-65
2023/06/15 00:30:56;;;;;;;;;20.25;20.25;;;;;;;;4957930;28;45369;-65
2023/06/15 00:33:21;;;;;;;;;17.00;16.25;;;;;;;;4957855;28;45377;-65
2023/06/15 00:35:46;;;;;;;;;16.00;15.75;;;;;;;;4957555;28;47181;-65
2023/06/15 00:38:11;;;;;;;;;22.25;17.50;;;;;;;;4957283;28;45330;-65
2023/06/15 00:40:38;;;;;;;;;21.25;17.75;;;;;;;;4957989;28;45432;-65
2023/06/15 00:43:03;;;;;;;;;19.00;18.33;;;;;;;;4956471;28;45604;-65
2023/06/15 00:45:28;;;;;;;;;20.25;20.00;;;;;;;;4957604;28;45457;-65
2023/06/15 00:47:54;;;;;;;;;18.75;18.25;;;;;;;;4957616;28;45626;-65
2023/06/15 00:50:19;;;;;;;;;19.75;19.50;;;;;;;;4957848;28;45577;-65
2023/06/15 00:52:45;;;;;;;;;19.00;18.25;;;;;;;;4957686;28;45373;-65
2023/06/15 00:55:12;;;;;;;;;19.25;18.50;;;;;;;;4957641;28;46494;-66
2023/06/15 00:57:43;;;;;;;;;22.00;19.25;;;;;;;;4957673;28;45507;-65
2023/06/15 01:00:10;;;;;;;;;20.75;20.00;;;;;;;;4957871;28;45393;-66
2023/06/15 01:02:35;;;;;;;;;22.00;19.00;;;;;;;;4957315;28;45374;-65
2023/06/15 01:05:00;;;;;;;;;22.25;19.50;;;;;;;;4957418;28;46054;-66
2023/06/15 01:07:27;;;;;;;;;19.00;19.00;;;;;;;;4957618;28;45608;-65
2023/06/15 01:09:54;;;;;;;;;14.75;14.75;;;;;;;;4957623;28;45388;-65
2023/06/15 01:12:20;;;;;;;;;21.00;18.50;;;;;;;;4957417;28;45355;-65
2023/06/15 01:14:45;;;;;;;;;21.50;21.25;;;;;;;;4957347;28;46904;-65
2023/06/15 01:17:13;;;;;;;;;27.50;26.00;;;;;;;;4957325;28;45235;-65
2023/06/15 01:20:04;;;;;;;;;23.50;19.75;;;;;;;;4957518;28;45480;-66
2023/06/15 01:22:45;;;;;;;;;20.25;20.25;;;;;;;;4957491;28;45431;-65
2023/06/15 01:25:16;;;;;;;;;21.50;20.25;;;;;;;;4956893;28;46702;-65
2023/06/15 01:27:42;;;;;;;;;22.25;22.25;;;;;;;;4956995;28;45433;-65
2023/06/15 01:30:09;;;;;;;;;22.75;20.25;;;;;;;;4956777;28;45451;-65
2023/06/15 01:32:35;;;;;;;;;19.25;19.00;;;;;;;;4957128;28;45366;-65
2023/06/15 01:35:00;;;;;;;;;18.75;18.25;;;;;;;;4956926;28;45319;-65
2023/06/15 01:37:25;;;;;;;;;22.50;22.50;;;;;;;;4956724;28;45438;-65
2023/06/15 01:39:51;;;;;;;;;22.00;21.25;;;;;;;;4956982;28;45453;-66
2023/06/15 01:42:16;;;;;;;;;23.75;20.75;;;;;;;;4956520;28;45436;-65
2023/06/15 01:44:42;;;;;;;;;24.25;22.75;;;;;;;;4956215;28;46353;-65
2023/06/15 01:47:08;;;;;;;;;23.25;20.50;;;;;;;;4956433;28;45384;-66
2023/06/15 01:49:33;;;;;;;;;20.25;18.75;;;;;;;;4956441;28;45318;-65
2023/06/15 01:51:59;;;;;;;;;28.00;23.50;;;;;;;;4956406;28;45630;-67
2023/06/15 01:54:24;;;;;;;;;21.25;18.75;;;;;;;;4956301;28;46233;-65
2023/06/15 01:56:49;;;;;;;;;22.25;20.75;;;;;;;;4956413;28;45259;-65
2023/06/15 01:59:14;;;;;;;;;20.75;19.25;;;;;;;;4956531;28;45200;-65
2023/06/15 02:01:39;;;;;;;;;22.50;20.00;;;;;;;;4956738;28;45216;-63
2023/06/15 02:04:05;;;;;;;;;19.75;18.75;;;;;;;;4956517;28;46514;-63
2023/06/15 02:06:30;;;;;;;;;20.25;19.00;;;;;;;;4956567;28;45382;-63
2023/06/15 02:08:56;;;;;;;;;22.50;20.50;;;;;;;;4955886;28;45365;-63
2023/06/15 02:11:21;;;;;;;;;24.50;20.25;;;;;;;;4955094;28;45499;-63
2023/06/15 02:13:46;;;;;;;;;19.25;17.50;;;;;;;;4954896;28;46357;-63
2023/06/15 02:16:12;;;;;;;;;22.00;21.50;;;;;;;;4955299;28;45376;-63
2023/06/15 02:18:38;;;;;;;;;23.00;19.75;;;;;;;;4955709;28;45355;-63
2023/06/15 02:21:03;;;;;;;;;24.75;22.25;;;;;;;;4956435;28;45498;-63
2023/06/15 02:23:28;;;;;;;;;29.75;22.50;;;;;;;;4955842;28;45599;-63
2023/06/15 02:25:54;;;;;;;;;24.25;22.25;;;;;;;;4956034;28;45421;-63
2023/06/15 02:28:19;;;;;;;;;21.25;19.75;;;;;;;;4956092;28;45377;-63
2023/06/15 02:30:44;;;;;;;;;17.75;16.75;;;;;;;;4956356;28;45470;-63
2023/06/15 02:33:10;;;;;;;;;20.75;19.00;;;;;;;;4956028;28;46320;-63
2023/06/15 02:35:36;;;;;;;;;21.25;19.75;;;;;;;;4956120;28;45428;-63
2023/06/15 02:38:01;;;;;;;;;22.00;20.75;;;;;;;;4956299;28;45529;-63
2023/06/15 02:40:26;;;;;;;;;15.50;15.50;;;;;;;;4955936;28;45409;-63
2023/06/15 02:42:51;;;;;;;;;22.25;21.75;;;;;;;;4955850;28;46338;-63
2023/06/15 02:45:17;;;;;;;;;31.75;28.25;;;;;;;;4955772;28;45529;-63
2023/06/15 02:47:42;;;;;;;;;23.75;23.25;;;;;;;;4956046;28;45341;-63
2023/06/15 02:50:08;;;;;;;;;21.00;19.50;;;;;;;;4956018;28;45615;-63
2023/06/15 02:52:36;;;;;;;;;24.75;24.75;;;;;;;;4955856;28;46646;-63
2023/06/15 02:55:02;;;;;;;;;25.00;24.00;;;;;;;;4955840;28;45266;-63
2023/06/15 02:57:27;;;;;;;;;28.75;24.75;;;;;;;;4955551;28;45469;-63
2023/06/15 02:59:53;;;;;;;;;18.75;17.50;;;;;;;;4957020;28;45166;-63
2023/06/15 03:02:21;;;;;;;;;21.25;21.00;;;;;;;;4959253;28;46043;-63
2023/06/15 03:04:50;;;;;;;;;27.50;25.50;;;;;;;;4959013;28;45406;-63
2023/06/15 03:07:20;;;;;;;;;22.00;21.00;;;;;;;;4959308;28;45319;-63
2023/06/15 03:09:49;;;;;;;;;23.00;22.75;;;;;;;;4958922;28;45493;-63
2023/06/15 03:12:15;;;;;;;;;24.25;23.00;;;;;;;;4958688;28;46096;-63
2023/06/15 03:14:44;;;;;;;;;25.50;23.75;;;;;;;;4958910;28;45520;-63
2023/06/15 03:17:10;;;;;;;;;22.75;21.50;;;;;;;;4958925;28;45408;-63
2023/06/15 03:19:36;;;;;;;;;24.50;23.50;;;;;;;;4958943;28;45495;-63
2023/06/15 03:22:01;;;;;;;;;22.50;21.75;;;;;;;;4958979;28;45495;-63
2023/06/15 03:24:26;;;;;;;;;22.50;21.50;;;;;;;;4958190;28;45350;-63
2023/06/15 03:26:56;;;;;;;;;21.00;20.00;;;;;;;;4958965;28;45386;-63
2023/06/15 03:29:26;;;;;;;;;23.25;19.75;;;;;;;;4958399;28;45481;-63
2023/06/15 03:31:52;;;;;;;;;24.75;24.75;;;;;;;;4958643;28;46184;-62
2023/06/15 03:34:19;;;;;;;;;25.50;24.25;;;;;;;;4958586;28;45365;-63
2023/06/15 03:36:44;;;;;;;;;24.75;24.00;;;;;;;;4957260;28;45354;-63
2023/06/15 03:39:10;;;;;;;;;21.75;20.00;;;;;;;;4958729;28;45446;-63
2023/06/15 03:41:37;;;;;;;;;20.50;19.75;;;;;;;;4957967;28;46693;-63
2023/06/15 03:44:02;;;;;;;;;21.25;19.00;;;;;;;;4958296;28;45351;-62
2023/06/15 03:46:28;;;;;;;;;24.00;22.75;;;;;;;;4956777;28;45561;-63
2023/06/15 03:48:53;;;;;;;;;21.00;20.25;;;;;;;;4956571;28;45501;-63
2023/06/15 03:51:18;;;;;;;;;24.25;23.25;;;;;;;;4958490;28;47098;-63
2023/06/15 03:53:43;;;;;;;;;25.25;23.25;;;;;;;;4957955;28;45600;-63
2023/06/15 03:56:09;;;;;;;;;21.50;21.25;;;;;;;;4958438;28;45837;-63
2023/06/15 03:58:34;;;;;;;;;25.00;23.50;;;;;;;;4958175;28;45728;-63
2023/06/15 04:01:00;;;;;;;;;25.50;22.00;;;;;;;;4958422;28;47452;-62
2023/06/15 04:03:26;;;;;;;;;27.50;24.25;;;;;;;;4958040;28;46711;-63
2023/06/15 04:05:52;;;;;;;;;26.75;24.25;;;;;;;;4958424;28;45258;-63
2023/06/15 04:08:18;;;;;;;;;22.25;22.25;;;;;;;;4958261;28;45414;-63
2023/06/15 04:10:43;;;;;;;;;19.50;18.75;;;;;;;;4957133;28;46649;-63
2023/06/15 04:13:08;;;;;;;;;21.75;21.25;;;;;;;;4957664;28;45327;-62
2023/06/15 04:15:33;;;;;;;;;23.25;21.25;;;;;;;;4958354;28;45270;-63
2023/06/15 04:18:00;;;;;;;;;26.25;24.00;;;;;;;;4958299;28;45472;-63
2023/06/15 04:20:27;;;;;;;;;24.75;24.75;;;;;;;;4957980;28;45426;-62
2023/06/15 04:22:52;;;;;;;;;21.75;19.50;;;;;;;;4957520;28;45417;-63
2023/06/15 04:25:18;;;;;;;;;25.25;22.00;;;;;;;;4957356;28;45488;-62
2023/06/15 04:27:44;;;;;;;;;24.00;24.00;;;;;;;;4957814;28;45493;-62
2023/06/15 04:30:10;;;;;;;;;25.50;24.25;;;;;;;;4957793;28;45526;-62
2023/06/15 04:32:36;;;;;;;;;24.50;24.00;;;;;;;;4957344;28;45486;-62
2023/06/15 04:35:01;;;;;;;;;26.25;22.25;;;;;;;;4957704;28;45516;-62
2023/06/15 04:37:28;;;;;;;;;24.00;23.00;;;;;;;;4957629;28;45485;-63
2023/06/15 04:39:54;;;;;;;;;24.00;23.50;;;;;;;;4955941;28;46484;-62
2023/06/15 04:42:21;;;;;;;;;26.75;25.75;;;;;;;;4939804;28;45293;-69
2023/06/15 04:44:46;;;;;;;;;23.50;21.50;;;;;;;;4955866;28;45389;-70
2023/06/15 04:47:11;;;;;;;;;27.25;23.25;;;;;;;;4957395;28;45377;-69
2023/06/15 04:49:37;;;;;;;;;21.50;21.50;;;;;;;;4957148;28;46474;-70
2023/06/15 04:52:02;;;;;;;;;23.00;21.75;;;;;;;;4957558;28;45375;-69
2023/06/15 04:54:27;;;;;;;;;22.50;20.50;;;;;;;;4955921;28;45456;-69
2023/06/15 04:56:52;;;;;;;;;24.00;23.25;;;;;;;;4957204;28;45464;-69
2023/06/15 04:59:18;;;;;;;;;29.75;27.00;;;;;;;;4956347;28;45340;-70
2023/06/15 05:01:43;;;;;;;;;24.00;23.00;;;;;;;;4957306;28;45661;-75
2023/06/15 05:04:08;;;;;;;;;25.75;23.75;;;;;;;;4956151;28;45386;-69
2023/06/15 05:06:33;;;;;;;;;26.75;23.50;;;;;;;;4957059;28;45404;-69
2023/06/15 05:08:59;;;;;;;;;22.00;22.00;;;;;;;;4956397;28;45518;-69
2023/06/15 05:11:24;;;;;;;;;22.50;19.75;;;;;;;;4955399;28;45437;-70
2023/06/15 05:13:49;;;;;;;;;23.25;18.00;;;;;;;;4955302;28;45482;-70
2023/06/15 05:16:14;;;;;;;;;24.50;23.75;;;;;;;;4957272;28;45448;-69
2023/06/15 05:18:39;;;;;;;;;18.50;18.50;;;;;;;;4956911;28;46468;-69
2023/06/15 05:21:05;;;;;;;;;27.75;26.50;;;;;;;;4956842;28;45266;-70
2023/06/15 05:23:31;;;;;;;;;27.50;26.25;;;;;;;;4955981;28;45357;-69
2023/06/15 05:25:57;;;;;;;;;24.50;24.50;;;;;;;;4957183;28;45341;-70
2023/06/15 05:28:22;;;;;;;;;30.25;28.00;;;;;;;;4956711;28;47398;-69
2023/06/15 05:30:47;;;;;;;;;26.50;24.25;;;;;;;;4956849;28;45487;-70
2023/06/15 05:33:12;;;;;;;;;28.25;25.50;;;;;;;;4955308;28;45441;-69
2023/06/15 05:35:37;;;;;;;;;24.75;24.50;;;;;;;;4956355;28;45376;-69
2023/06/15 05:38:03;;;;;;;;;25.75;24.50;;;;;;;;4955583;28;47578;-69
2023/06/15 05:40:28;;;;;;;;;25.25;21.75;;;;;;;;4955701;28;45479;-68
2023/06/15 05:42:54;;;;;;;;;20.50;19.75;;;;;;;;4956907;28;45434;-70
2023/06/15 05:45:19;;;;;;;;;29.25;23.25;;;;;;;;4956754;28;45400;-70
2023/06/15 05:47:44;;;;;;;;;23.75;22.50;;;;;;;;4956201;28;47616;-70
2023/06/15 05:50:10;;;;;;;;;24.75;23.75;;;;;;;;4956275;28;45263;-70
2023/06/15 05:52:35;;;;;;;;;23.00;22.25;;;;;;;;4956599;28;45361;-70
2023/06/15 05:55:00;;;;;;;;;26.50;22.75;;;;;;;;4956838;28;45299;-70
2023/06/15 05:57:25;;;;;;;;;27.00;26.00;;;;;;;;4954744;28;45557;-70
2023/06/15 05:59:51;;;;;;;;;24.25;20.25;;;;;;;;4956494;28;45319;-69
2023/06/15 06:02:16;;;;;;;;;33.50;25.00;;;;;;;;4956968;28;45334;-70
2023/06/15 06:04:41;;;;;;;;;24.75;24.50;;;;;;;;4956420;28;45524;-70
2023/06/15 06:07:06;;;;;;;;;23.00;23.00;;;;;;;;4954909;28;47163;-70
2023/06/15 06:09:33;;;;;;;;;25.00;21.75;;;;;;;;4954946;28;45763;-70
2023/06/15 06:11:58;;;;;;;;;30.25;24.50;;;;;;;;4956495;28;45406;-70
2023/06/15 06:14:25;;;;;;;;;23.75;23.25;;;;;;;;4956544;28;45441;-70
2023/06/15 06:16:50;;;;;;;;;23.75;21.75;;;;;;;;4956325;28;45457;-70
2023/06/15 06:19:16;;;;;;;;;21.75;21.75;;;;;;;;4956191;28;45445;-70
2023/06/15 06:21:41;;;;;;;;;23.25;20.75;;;;;;;;4956211;28;45419;-70
2023/06/15 06:24:07;;;;;;;;;29.50;25.75;;;;;;;;4955863;28;45402;-71
2023/06/15 06:26:36;;;;;;;;;23.00;20.50;;;;;;;;4955829;28;45415;-71
2023/06/15 06:29:01;;;;;;;;;24.00;23.00;;;;;;;;4955491;28;45444;-71
2023/06/15 06:31:26;;;;;;;;;18.50;17.75;;;;;;;;4955972;28;45730;-71
2023/06/15 06:33:51;;;;;;;;;17.75;17.25;;;;;;;;4946549;28;45433;-71
2023/06/15 06:36:17;;;;;;;;;12.00;10.75;;;;;;;;4943430;28;46334;-71
2023/06/15 06:38:42;;;;;;;;;8.50;7.50;;;;;;;;4946316;28;45450;-71
2023/06/15 06:41:07;;;;;;;;;9.75;8.25;;;;;;;;4954866;28;45407;-69
2023/06/15 06:43:32;;;;;;;;;8.75;8.75;;;;;;;;4937851;28;45545;-69
2023/06/15 06:45:57;;;;;;;;;8.00;8.00;;;;;;;;4935532;28;46382;-70
2023/06/15 06:48:22;;;;;;;;;8.25;8.00;;;;;;;;4937032;28;45326;-70
2023/06/15 06:50:48;;;;;;;;;9.00;9.00;;;;;;;;4936666;28;45349;-70
2023/06/15 06:53:13;;;;;;;;;9.25;7.75;;;;;;;;4936678;28;45326;-70
2023/06/15 06:55:38;;;;;;;;;8.25;7.50;;;;;;;;4935352;28;48728;-70
2023/06/15 06:58:04;;;;;;;;;8.25;8.25;;;;;;;;4936581;28;45421;-70
2023/06/15 07:00:29;;;;;;;;;9.75;7.75;;;;;;;;4936505;28;45438;-70
2023/06/15 07:02:55;;;;;;;;;10.75;10.00;;;;;;;;4936001;28;45557;-70
2023/06/15 07:05:20;;;;;;;;;10.00;9.75;;;;;;;;4936142;28;47308;-70
2023/06/15 07:07:46;;;;;;;;;12.50;12.50;;;;;;;;4936016;28;45774;-70
2023/06/15 07:10:11;;;;;;;;;11.50;10.50;;;;;;;;4936526;28;45392;-70
2023/06/15 07:12:36;;;;;;;;;12.25;10.25;;;;;;;;4935102;28;45305;-70
2023/06/15 07:15:02;;;;;;;;;10.00;10.00;;;;;;;;4936506;28;46220;-70
2023/06/15 07:17:27;;;;;;;;;9.50;9.50;;;;;;;;4936241;28;45283;-70
2023/06/15 07:19:52;;;;;;;;;11.00;9.25;;;;;;;;4936351;28;45346;-70
2023/06/15 07:22:17;;;;;;;;;8.50;8.50;;;;;;;;4936368;28;45608;-71
2023/06/15 07:24:43;;;;;;;;;15.00;11.75;;;;;;;;4936039;28;46495;-71
2023/06/15 07:27:08;;;;;;;;;8.00;7.75;;;;;;;;4934865;28;45312;-71
2023/06/15 07:29:33;;;;;;;;;12.50;11.50;;;;;;;;4949338;28;45366;-71
2023/06/15 07:31:59;;;;;;;;;8.00;8.00;;;;;;;;4955595;28;45294;-70
2023/06/15 07:34:24;;;;;;;;;13.00;10.25;;;;;;;;4953598;28;47022;-71
2023/06/15 07:36:49;;;;;;;;;10.25;9.50;;;;;;;;4954179;28;45368;-71
2023/06/15 07:39:14;;;;;;;;;11.00;10.75;;;;;;;;4955472;28;45270;-70
2023/06/15 07:41:40;;;;;;;;;12.00;8.00;;;;;;;;4955283;28;45573;-70
2023/06/15 07:44:05;;;;;;;;;8.00;8.00;;;;;;;;4955202;28;47306;-71
2023/06/15 07:46:30;;;;;;;;;9.25;8.50;;;;;;;;4957083;28;45380;-71
2023/06/15 07:48:55;;;;;;;;;8.25;8.25;;;;;;;;4958814;28;45375;-71
2023/06/15 07:51:20;;;;;;;;;10.75;10.75;;;;;;;;4958879;28;45282;-71
2023/06/15 07:53:46;;;;;;;;;6.50;6.50;;;;;;;;4958783;28;45481;-71
2023/06/15 07:56:11;;;;;;;;;8.25;7.50;;;;;;;;4958658;28;45306;-71
2023/06/15 07:58:38;;;;;;;;;5.75;5.75;;;;;;;;4958877;28;45311;-70
2023/06/15 08:01:03;;;;;;;;;6.50;6.25;;;;;;;;4958642;28;45495;-70
2023/06/15 08:03:29;;;;;;;;;5.25;5.25;;;;;;;;4958281;28;46048;-71
2023/06/15 08:05:54;;;;;;;;;8.00;6.75;;;;;;;;4958455;28;45417;-70
2023/06/15 08:08:21;;;;;;;;;7.75;7.00;;;;;;;;4958847;28;45502;-71
2023/06/15 08:10:46;;;;;;;;;6.75;6.75;;;;;;;;4958097;28;45356;-71
2023/06/15 08:13:11;;;;;;;;;7.50;7.50;;;;;;;;4958253;28;46371;-71
2023/06/15 08:15:36;;;;;;;;;7.00;6.00;;;;;;;;4958118;28;45414;-70
2023/06/15 08:18:01;;;;;;;;;6.75;6.75;;;;;;;;4958599;28;45657;-69
2023/06/15 08:20:27;;;;;;;;;7.75;7.75;;;;;;;;4958310;28;45436;-70
2023/06/15 08:22:52;;;;;;;;;7.75;7.75;;;;;;;;4957847;28;45489;-70
2023/06/15 08:25:17;;;;;;;;;8.50;7.25;;;;;;;;4958114;28;45413;-71
2023/06/15 08:27:42;;;;;;;;;7.25;7.25;;;;;;;;4958447;28;45532;-70
2023/06/15 08:30:08;;;;;;;;;8.75;7.00;;;;;;;;4957825;28;45368;-69
2023/06/15 08:32:33;;;;;;;;;8.50;7.25;;;;;;;;4957627;28;45405;-70
2023/06/15 08:34:58;;;;;;;;;5.00;5.00;;;;;;;;4957981;28;45358;-70
2023/06/15 08:37:24;;;;;;;;;7.00;6.25;;;;;;;;4958292;28;45536;-71
2023/06/15 08:39:50;;;;;;;;;7.25;7.25;;;;;;;;4958072;28;45303;-70
2023/06/15 08:42:16;;;;;;;;;10.00;10.00;;;;;;;;4957591;28;45501;-71
2023/06/15 08:44:44;;;;;;;;;5.75;5.75;;;;;;;;4957324;28;45334;-70
2023/06/15 08:47:09;;;;;;;;;4.00;4.00;;;;;;;;4957835;28;45388;-71
2023/06/15 08:49:37;;;;;;;;;4.00;3.00;;;;;;;;4957941;28;45398;-71
2023/06/15 08:52:02;;;;;;;;;6.00;6.00;;;;;;;;4957711;28;46365;-70
2023/06/15 08:54:30;;;;;;;;;6.00;6.00;;;;;;;;4957199;28;45532;-71
2023/06/15 08:56:55;;;;;;;;;6.00;6.00;;;;;;;;4956968;28;45440;-71
2023/06/15 08:59:21;;;;;;;;;6.25;5.50;;;;;;;;4957230;28;45301;-70
2023/06/15 09:01:47;;;;;;;;;6.25;6.25;;;;;;;;4957681;28;45365;-71
2023/06/15 09:04:12;;;;;;;;;5.25;5.25;;;;;;;;4956124;28;45402;-71
2023/06/15 09:06:38;;;;;;;;;5.75;5.75;;;;;;;;4957611;28;45822;-71
2023/06/15 09:09:03;;;;;;;;;6.00;6.00;;;;;;;;4957761;28;45459;-71
2023/06/15 09:11:28;;;;;;;;;5.00;5.00;;;;;;;;4939846;28;47369;-71
2023/06/15 09:13:54;;;;;;;;;6.25;5.75;;;;;;;;4956070;28;45456;-71
2023/06/15 09:16:19;;;;;;;;;6.25;5.50;;;;;;;;4957575;28;45500;-72
2023/06/15 09:18:46;;;;;;;;;5.00;5.00;;;;;;;;4957332;28;45675;-72
2023/06/15 09:21:12;;;;;;;;;6.00;6.00;;;;;;;;4957377;28;45932;-72
2023/06/15 09:23:39;;;;;;;;;5.50;5.50;;;;;;;;4957153;28;45499;-71
2023/06/15 09:26:05;;;;;;;;;6.00;4.50;;;;;;;;4956995;28;45371;-70
2023/06/15 09:28:31;;;;;;;;;6.00;5.50;;;;;;;;4956681;28;45316;-71
2023/06/15 09:30:56;;;;;;;;;6.50;6.50;;;;;;;;4956797;28;46152;-71
2023/06/15 09:33:22;;;;;;;;;6.50;5.75;;;;;;;;4957032;28;45346;-71
2023/06/15 09:35:55;;;;;;;;;6.00;6.00;;;;;;;;4957107;28;45402;-71
2023/06/15 09:38:20;;;;;;;;;5.75;5.75;;;;;;;;4957244;28;45274;-72
2023/06/15 09:40:45;;;;;;;;;8.00;6.50;;;;;;;;4955249;28;46706;-71
2023/06/15 09:43:12;;;;;;;;;7.50;6.50;;;;;;;;4959632;28;45195;-72
2023/06/15 09:45:47;;;;;;;;;8.50;7.50;;;;;;;;4965185;28;45339;-72
2023/06/15 09:48:13;;;;;;;;;8.50;5.75;;;;;;;;4965214;28;45355;-72
2023/06/15 09:50:38;;;;;;;;;6.00;6.00;;;;;;;;4964371;28;45456;-72
2023/06/15 09:53:03;;;;;;;;;7.00;7.00;;;;;;;;4964300;28;45355;-72
2023/06/15 09:55:28;;;;;;;;;8.50;7.50;;;;;;;;4961833;28;45393;-73
2023/06/15 09:57:54;;;;;;;;;5.25;5.25;;;;;;;;4964768;28;45380;-72
2023/06/15 10:00:20;;;;;;;;;5.25;5.25;;;;;;;;4963268;28;45623;-72
2023/06/15 10:02:45;;;;;;;;;6.75;6.75;;;;;;;;4962638;28;45314;-72
2023/06/15 10:05:13;;;;;;;;;6.50;6.00;;;;;;;;4963008;28;45391;-72
2023/06/15 10:07:41;;;;;;;;;5.50;5.50;;;;;;;;4959908;28;45413;-72
2023/06/15 10:10:07;;;;;;;;;5.75;5.75;;;;;;;;4956130;28;45339;-72
2023/06/15 10:12:32;;;;;;;;;6.00;6.00;;;;;;;;4972242;28;45571;-72
2023/06/15 10:15:09;;;;;;;;;7.00;7.00;;;;;;;;4974822;28;45381;-71
2023/06/15 10:17:37;;;;;;;;;8.00;7.00;;;;;;;;4974654;28;45661;-71
2023/06/15 10:20:07;;;;;;;;;8.25;6.50;;;;;;;;4973959;28;47652;-71
2023/06/15 10:22:33;;;;;;;;;7.25;7.25;;;;;;;;4975073;28;45445;-72
2023/06/15 10:24:58;;;;;;;;;6.00;6.00;;;;;;;;4975715;28;45420;-71
2023/06/15 10:27:25;;;;;;;;;6.00;5.75;;;;;;;;4975495;28;45538;-70
2023/06/15 10:29:53;;;;;;;;;5.00;5.00;;;;;;;;4959857;28;46501;-71
2023/06/15 10:32:21;;;;;;;;;10.75;9.00;;;;;;;;4954448;28;45425;-64
2023/06/15 10:34:53;;;;;;;;;6.50;6.00;;;;;;;;4955263;28;45383;-65
2023/06/15 10:37:23;;;;;;;;;7.50;7.50;;;;;;;;4955786;28;45436;-64
2023/06/15 10:39:49;;;;;;;;;10.00;9.00;;;;;;;;4955640;28;46101;-64
2023/06/15 10:42:14;;;;;;;;;6.00;6.00;;;;;;;;4954233;28;45505;-64
2023/06/15 10:44:40;;;;;;;;;6.25;6.25;;;;;;;;4955543;28;45438;-64
2023/06/15 10:47:09;;;;;;;;;7.00;7.00;;;;;;;;4955173;28;45504;-64
2023/06/15 10:49:34;;;;;;;;;7.00;6.00;;;;;;;;4954537;28;45649;-65
2023/06/15 10:52:01;;;;;;;;;5.00;5.00;;;;;;;;4955625;28;45343;-64
2023/06/15 10:54:27;;;;;;;;;8.50;7.25;;;;;;;;4956029;28;45401;-64
2023/06/15 10:56:55;;;;;;;;;8.00;7.00;;;;;;;;4955294;28;45536;-63
2023/06/15 10:59:39;;;;;;;;;8.50;8.50;;;;;;;;4954146;28;46545;-64
2023/06/15 11:02:40;;;;;;;;;7.00;7.00;;;;;;;;4955686;28;45424;-64
2023/06/15 11:05:08;;;;;;;;;7.00;7.00;;;;;;;;4953387;28;45353;-64
2023/06/15 11:07:35;;;;;;;;;10.00;10.00;;;;;;;;4953229;28;45589;-64
2023/06/15 11:10:01;;;;;;;;;6.50;5.50;;;;;;;;4951399;28;46195;-64
2023/06/15 11:12:36;;;;;;;;;7.00;7.00;;;;;;;;4935414;28;45652;-64
2023/06/15 11:15:02;;;;;;;;;7.25;7.25;;;;;;;;4951655;28;45566;-64
2023/06/15 11:17:27;;;;;;;;;9.25;9.25;;;;;;;;4952678;28;45485;-64
2023/06/15 11:19:53;;;;;;;;;11.50;9.00;;;;;;;;4944087;28;45517;-64
2023/06/15 11:22:28;;;;;;;;;10.00;9.25;;;;;;;;4946879;28;45439;-63
2023/06/15 11:24:54;;;;;;;;;8.50;8.00;;;;;;;;4944918;28;45659;-65
2023/06/15 11:27:22;;;;;;;;;10.50;9.00;;;;;;;;4949188;28;45777;-66
2023/06/15 11:29:48;;;;;;;;;8.75;7.25;;;;;;;;4953829;28;45536;-64
2023/06/15 11:32:13;;;;;;;;;10.25;10.00;;;;;;;;4952599;28;45807;-65
2023/06/15 11:34:39;;;;;;;;;7.00;7.00;;;;;;;;4935318;28;45520;-65
2023/06/15 11:37:06;;;;;;;;;8.50;7.75;;;;;;;;4954570;28;45605;-66
2023/06/15 11:39:31;;;;;;;;;7.75;6.00;;;;;;;;4952631;28;45468;-65
2023/06/15 11:41:58;;;;;;;;;10.25;10.25;;;;;;;;4949573;28;45422;-65
2023/06/15 11:44:23;;;;;;;;;10.75;10.75;;;;;;;;4956644;28;45516;-66
2023/06/15 11:46:56;;;;;;;;;10.25;8.75;;;;;;;;4953212;28;45525;-66
2023/06/15 11:49:21;;;;;;;;;9.00;9.00;;;;;;;;4943518;28;46351;-66
2023/06/15 11:51:47;;;;;;;;;9.00;9.00;;;;;;;;4947138;28;45429;-65
2023/06/15 11:54:13;;;;;;;;;9.50;7.75;;;;;;;;4950633;28;45514;-65
2023/06/15 11:56:48;;;;;;;;;10.00;9.50;;;;;;;;4939666;28;45664;-65
2023/06/15 11:59:17;;;;;;;;;9.00;9.00;;;;;;;;4952614;28;45560;-64
2023/06/15 12:01:42;;;;;;;;;6.50;6.50;;;;;;;;4947401;28;45363;-64
2023/06/15 12:04:12;;;;;;;;;8.25;8.25;;;;;;;;4950024;28;45295;-64
2023/06/15 12:06:38;;;;;;;;;10.00;9.25;;;;;;;;4940424;28;45326;-64
2023/06/15 12:09:04;;;;;;;;;8.75;8.75;;;;;;;;4945254;28;45542;-64
2023/06/15 12:11:30;;;;;;;;;11.00;10.00;;;;;;;;4956399;28;45369;-65
2023/06/15 12:14:08;;;;;;;;;11.75;11.75;;;;;;;;4956726;28;45342;-65
2023/06/15 12:16:34;;;;;;;;;11.00;7.50;;;;;;;;4957362;28;45341;-65
2023/06/15 12:19:01;;;;;;;;;9.50;9.50;;;;;;;;4956687;28;46413;-64
2023/06/15 12:21:33;;;;;;;;;10.50;10.50;;;;;;;;4956478;28;45423;-64
2023/06/15 12:24:02;;;;;;;;;12.00;10.75;;;;;;;;4956547;28;45436;-64
2023/06/15 12:26:32;;;;;;;;;11.00;10.00;;;;;;;;4957545;28;45477;-64
2023/06/15 12:28:57;;;;;;;;;11.50;10.00;;;;;;;;4957040;28;45668;-64
2023/06/15 12:31:30;;;;;;;;;11.25;11.25;;;;;;;;4957423;28;45326;-64
2023/06/15 12:33:55;;;;;;;;;8.75;8.75;;;;;;;;4956458;28;45326;-64
2023/06/15 12:36:20;;;;;;;;;9.00;9.00;;;;;;;;4957202;28;45382;-64
2023/06/15 12:38:48;;;;;;;;;9.25;9.00;;;;;;;;4957152;28;45302;-64
2023/06/15 12:41:13;;;;;;;;;9.50;9.50;;;;;;;;4956079;28;45358;-63
2023/06/15 12:43:38;;;;;;;;;10.75;9.75;;;;;;;;4957528;28;45378;-63
2023/06/15 12:46:04;;;;;;;;;10.75;10.75;;;;;;;;4957617;28;45311;-63
2023/06/15 12:48:30;;;;;;;;;8.75;8.75;;;;;;;;4956855;28;45471;-63
2023/06/15 12:50:55;;;;;;;;;11.00;10.00;;;;;;;;4957271;28;45382;-63
2023/06/15 12:53:20;;;;;;;;;11.00;10.00;;;;;;;;4957296;28;45382;-63
2023/06/15 12:55:46;;;;;;;;;10.25;9.25;;;;;;;;4957198;28;45450;-63
2023/06/15 12:58:11;;;;;;;;;12.50;12.50;;;;;;;;4956879;28;46476;-63
2023/06/15 13:00:37;;;;;;;;;10.25;9.25;;;;;;;;4957114;28;45515;-63
2023/06/15 13:03:05;;;;;;;;;11.25;11.00;;;;;;;;4956198;28;45402;-63
2023/06/15 13:05:31;;;;;;;;;9.75;9.75;;;;;;;;4955811;28;45592;-63
2023/06/15 13:07:56;;;;;;;;;11.25;10.25;;;;;;;;4955310;28;45390;-63
2023/06/15 13:10:21;;;;;;;;;10.50;10.50;;;;;;;;4956474;28;45471;-63
2023/06/15 13:12:47;;;;;;;;;9.75;9.75;;;;;;;;4954779;28;45242;-63
2023/06/15 13:15:12;;;;;;;;;10.25;10.00;;;;;;;;4957024;28;45457;-63
2023/06/15 13:17:37;;;;;;;;;11.50;10.75;;;;;;;;4956845;28;46453;-63
2023/06/15 13:20:07;;;;;;;;;11.00;9.25;;;;;;;;4955443;28;45509;-63
2023/06/15 13:22:32;;;;;;;;;9.50;9.50;;;;;;;;4956948;28;45351;-64
2023/06/15 13:24:57;;;;;;;;;8.25;8.00;;;;;;;;4956801;28;45499;-63
2023/06/15 13:27:23;;;;;;;;;10.50;10.50;;;;;;;;4955417;28;46734;-63
2023/06/15 13:29:48;;;;;;;;;10.25;10.25;;;;;;;;4955805;28;45593;-64
2023/06/15 13:32:15;;;;;;;;;8.75;8.75;;;;;;;;4956899;28;45345;-62
2023/06/15 13:34:41;;;;;;;;;11.00;11.00;;;;;;;;4956382;28;45284;-63
2023/06/15 13:37:06;;;;;;;;;9.75;9.75;;;;;;;;4956393;28;45416;-63
2023/06/15 13:39:31;;;;;;;;;11.50;11.50;;;;;;;;4956302;28;45374;-64
2023/06/15 13:41:56;;;;;;;;;12.50;10.75;;;;;;;;4950175;28;45506;-63
2023/06/15 13:44:22;;;;;;;;;13.00;10.00;;;;;;;;4936745;28;45326;-63
2023/06/15 13:46:47;;;;;;;;;10.00;10.00;;;;;;;;4937246;28;45537;-63
2023/06/15 13:49:12;;;;;;;;;9.00;9.00;;;;;;;;4936912;28;45446;-63
2023/06/15 13:51:37;;;;;;;;;9.00;9.00;;;;;;;;4937269;28;45209;-63
2023/06/15 13:54:03;;;;;;;;;12.25;11.25;;;;;;;;4936903;28;45352;-63
2023/06/15 13:56:28;;;;;;;;;10.00;10.00;;;;;;;;4936711;28;46246;-63
2023/06/15 13:58:54;;;;;;;;;11.25;11.25;;;;;;;;4937232;28;45342;-63
2023/06/15 14:01:23;;;;;;;;;8.75;8.50;;;;;;;;4937352;28;45414;-64
2023/06/15 14:03:48;;;;;;;;;9.25;9.25;;;;;;;;4937185;28;45552;-63
2023/06/15 14:06:15;;;;;;;;;8.75;7.75;;;;;;;;4937152;28;46172;-63
2023/06/15 14:08:40;;;;;;;;;8.50;8.50;;;;;;;;4935575;28;45421;-63
2023/06/15 14:11:05;;;;;;;;;6.00;6.00;;;;;;;;4936284;28;45395;-64
2023/06/15 14:13:31;;;;;;;;;9.50;8.75;;;;;;;;4936095;28;45405;-63
2023/06/15 14:15:56;;;;;;;;;11.00;11.00;;;;;;;;4935734;28;46104;-64
2023/06/15 14:18:23;;;;;;;;;11.00;10.00;;;;;;;;4947857;28;45412;-64
2023/06/15 14:20:48;;;;;;;;;8.75;8.75;;;;;;;;4937972;28;45382;-63